Apollo, Pennsylvania
Current Conditions -  °F | °C
As of 5:35 AM on Saturday 01 Nov 2014 (Local Time) from KLBE Reporting Station
Haze Haze  
Wind Chill: 36°   Ceiling: NA
Heat Index: 39°   Visibility: 6mi
Dew Point: 39°   Wind: 5mph
Humidity: 100%   Direction: 350°N
Pressure: 29.91"   Gusts: NA
Location:  40.58°N, 79.57°W
Report Text: KLBE 010935Z AUTO 35004KT 6SM BR 04/04 A2991 RMK AO2
Loading
Personal Weather Stations






























Interactive Weather Map
Tropical Storm Tracking
New forecast layout! Learn more

10-Day Weather Forecast

Advertisements
Track Severe Weather on mobile